Overview Statistics Trail Chart Weather Telemetry Raw packets
 

This is the latest recevied weather packets stored in our database for station/object IZ2WYA-13. If no packets are shown the sender has not sent any weather packets the latest 10 day(s).

<< 8 9 10 11 12 13 14 >>
Time Temp. Humidity Pressure Rain* Wind** Luminosity Snow
1788130060 25° C 51% 1018.6 hPa - - - -
1788128259 25° C 51% 1018.5 hPa - - - -
1788126457 25.56° C 51% 1018.3 hPa - - - -
1788124657 25.56° C 51% 1018.2 hPa - - - -
1788122855 25.56° C 51% 1017.9 hPa - - - -
1788121054 26.11° C 50% 1017.5 hPa - - - -
1788119252 26.67° C 50% 1017.3 hPa - - - -
1788117451 26.67° C 49% 1017.1 hPa - - - -
1788115650 26.67° C 51% 1016.6 hPa - - - -
1788113864 27.22° C 51% 1016.2 hPa - - - -
1788112048 27.22° C 50% 1015.8 hPa - - - -
1788110246 27.78° C 50% 1015.5 hPa - - - -
1788108445 27.78° C 50% 1015.4 hPa - - - -
1788106644 27.78° C 50% 1015.3 hPa - - - -
1788104842 27.78° C 49% 1015.3 hPa - - - -
1788103041 28.33° C 50% 1015.4 hPa - - - -
1788101240 28.33° C 49% 1015.4 hPa - - - -
1788099438 27.78° C 49% 1015.5 hPa - - - -
1788097637 27.78° C 49% 1015.7 hPa - - - -
1788095836 27.22° C 49% 1016 hPa - - - -
1788094035 26.67° C 50% 1016.3 hPa - - - -
1788092234 26.67° C 50% 1016.6 hPa - - - -
1788090432 26.11° C 51% 1016.9 hPa - - - -
1788088631 26.11° C 53% 1017.1 hPa - - - -
1788086830 25.56° C 57% 1017.7 hPa - - - -

* Rain since midnight (hover to see other rain measurements)
** Current wind speed in m/s (hover to see current wind gust speed)